Time;durP1;ratioP1;P1;durP2;ratioP2;P2;SDS_P1;SDS_P2;PMS_P1;PMS_P2;Temp;Humidity;BMP_temperature;BMP_pressure;BME280_temperature;BME280_humidity;BME280_pressure;Samples;Min_cycle;Max_cycle;Signal;HPM_P1;HPM_P2
2023/12/21 13:17:41;;;;;;;18.67;3.67;;;;;;;7.84;100.00;100126.69;5065389;27;20562;-70
2023/12/21 13:20:09;;;;;;;19.47;3.83;;;;;;;7.87;100.00;100040.88;5079475;28;20457;-70
2023/12/21 13:22:35;;;;;;;17.73;3.47;;;;;;;7.72;100.00;100017.00;5062201;28;20194;-68
2023/12/21 13:25:01;;;;;;;29.77;4.97;;;;;;;7.96;100.00;100017.50;5068850;28;20451;-68
2023/12/21 13:27:26;;;;;;;24.17;5.70;;;;;;;7.88;100.00;99978.44;5064711;28;20479;-68
2023/12/21 13:29:52;;;;;;;32.53;4.60;;;;;;;8.03;100.00;99997.78;5068726;28;21023;-68
2023/12/21 13:32:17;;;;;;;27.80;5.53;;;;;;;8.10;100.00;99950.53;5065915;28;20175;-68
2023/12/21 13:34:43;;;;;;;26.30;5.53;;;;;;;7.93;100.00;99895.88;5062579;28;20184;-70
2023/12/21 13:37:08;;;;;;;35.50;5.37;;;;;;;8.09;100.00;99908.81;5058811;28;20293;-71
2023/12/21 13:39:34;;;;;;;30.97;4.90;;;;;;;8.19;100.00;99894.22;5066523;28;20188;-70
2023/12/21 13:41:59;;;;;;;28.90;5.00;;;;;;;7.71;100.00;99833.84;5062558;28;20197;-71
2023/12/21 13:44:27;;;;;;;28.00;4.80;;;;;;;8.19;100.00;99863.00;5058885;28;20187;-71
2023/12/21 13:46:56;;;;;;;23.47;4.70;;;;;;;8.19;100.00;99863.00;5061872;28;20211;-70
2023/12/21 13:49:22;;;;;;;27.03;5.40;;;;;;;8.26;100.00;99858.47;5063355;28;20440;-69
2023/12/21 13:51:48;;;;;;;29.20;5.07;;;;;;;8.10;100.00;99832.19;5060825;28;20743;-69
2023/12/21 13:54:18;;;;;;;27.37;5.70;;;;;;;8.22;100.00;99854.59;5061601;28;20823;-69
2023/12/21 13:56:44;;;;;;;29.03;5.77;;;;;;;8.28;100.00;99847.59;5059847;28;20438;-69
2023/12/21 13:59:10;;;;;;;24.00;4.47;;;;;;;8.33;100.00;99853.09;5060740;28;20429;-68
2023/12/21 14:01:35;;;;;;;39.07;6.60;;;;;;;8.23;100.00;99820.66;5067922;28;20457;-68
2023/12/21 14:04:01;;;;;;;34.03;5.90;;;;;;;8.15;100.00;99809.16;5062878;28;20566;-69
2023/12/21 14:06:26;;;;;;;31.17;6.53;;;;;;;8.36;100.00;99808.13;5061806;28;20199;-69
2023/12/21 14:08:54;;;;;;;24.50;5.93;;;;;;;8.43;100.00;99805.44;5056438;28;20546;-69
2023/12/21 14:11:20;;;;;;;27.63;5.37;;;;;;;8.43;100.00;99824.16;5051346;28;20277;-68
2023/12/21 14:13:45;;;;;;;29.47;6.60;;;;;;;8.33;100.00;99808.53;5063264;28;20511;-68
2023/12/21 14:16:10;;;;;;;22.73;3.60;;;;;;;7.50;100.00;99706.78;5062259;28;20211;-68
2023/12/21 14:18:36;;;;;;;18.27;3.63;;;;;;;7.61;100.00;99785.41;5061209;28;20654;-68
2023/12/21 14:21:02;;;;;;;17.23;3.60;;;;;;;6.25;100.00;99604.31;5058968;28;20186;-68
2023/12/21 14:23:27;;;;;;;21.07;4.17;;;;;;;7.42;100.00;99766.50;5059809;28;20182;-68
2023/12/21 14:25:53;;;;;;;25.27;3.70;;;;;;;7.22;100.00;99768.31;5062270;28;20305;-68
2023/12/21 14:28:18;;;;;;;18.20;3.20;;;;;;;7.57;100.00;99845.53;5050658;28;20600;-68
2023/12/21 14:30:44;;;;;;;27.53;3.63;;;;;;;7.34;100.00;99788.03;5053093;28;20226;-68
2023/12/21 14:33:09;;;;;;;29.00;5.07;;;;;;;7.48;100.00;99837.72;5040341;28;20180;-68
2023/12/21 14:35:35;;;;;;;25.03;4.10;;;;;;;7.35;100.00;99802.22;5047274;28;20196;-68
2023/12/21 14:38:02;;;;;;;23.50;4.10;;;;;;;7.36;100.00;99817.19;5049723;28;20186;-68
2023/12/21 14:40:28;;;;;;;31.13;5.73;;;;;;;7.63;100.00;99860.72;5049042;28;20214;-69
2023/12/21 14:42:53;;;;;;;25.90;4.73;;;;;;;7.57;100.00;99878.38;5049801;28;20991;-69
2023/12/21 14:45:20;;;;;;;27.80;5.27;;;;;;;7.79;100.00;99856.84;5051701;28;20188;-69
2023/12/21 14:47:45;;;;;;;29.57;6.00;;;;;;;7.68;100.00;99835.06;5043264;28;20223;-69
2023/12/21 14:50:11;;;;;;;31.80;5.97;;;;;;;7.74;100.00;99817.41;5042466;28;20438;-69
2023/12/21 14:52:38;;;;;;;21.73;5.50;;;;;;;7.35;100.00;99748.84;5052207;28;20333;-69
2023/12/21 14:55:04;;;;;;;33.80;5.63;;;;;;;7.82;100.00;99803.88;5051781;28;20179;-69
2023/12/21 14:57:30;;;;;;;31.23;6.17;;;;;;;7.80;100.00;99773.06;5051353;28;20453;-69
2023/12/21 14:59:55;;;;;;;45.23;7.97;;;;;;;7.55;100.00;99671.44;5048115;28;20445;-69
2023/12/21 15:02:21;;;;;;;31.03;8.97;;;;;;;7.68;100.00;99658.09;5048853;28;20184;-69
2023/12/21 15:04:47;;;;;;;33.83;7.63;;;;;;;7.56;100.00;99611.72;5053656;28;20661;-69
2023/12/21 15:07:12;;;;;;;36.30;7.47;;;;;;;7.90;100.00;99648.81;5055737;28;20256;-69
2023/12/21 15:09:38;;;;;;;37.63;7.13;;;;;;;7.67;100.00;99600.41;5046288;28;20193;-69
2023/12/21 15:12:04;;;;;;;33.73;6.70;;;;;;;7.20;100.00;99520.50;5048258;28;20187;-69
2023/12/21 15:14:29;;;;;;;39.37;6.80;;;;;;;7.80;100.00;99576.34;5051667;28;20722;-69
2023/12/21 15:16:55;;;;;;;38.73;7.40;;;;;;;7.57;100.00;99552.00;5047092;28;20553;-69
2023/12/21 15:19:20;;;;;;;47.10;8.03;;;;;;;7.43;100.00;99497.84;5041726;28;20179;-69
2023/12/21 15:21:46;;;;;;;34.17;6.90;;;;;;;7.80;100.00;99543.47;5068363;28;20180;-69
2023/12/21 15:24:11;;;;;;;37.70;7.00;;;;;;;7.95;100.00;99549.34;5051188;28;20276;-69
2023/12/21 15:26:37;;;;;;;44.17;8.27;;;;;;;7.69;100.00;99504.91;5047560;28;20204;-69
2023/12/21 15:29:07;;;;;;;41.93;7.50;;;;;;;7.93;100.00;99520.22;5048599;28;20562;-69
2023/12/21 15:31:32;;;;;;;42.27;8.93;;;;;;;7.83;100.00;99508.34;5049014;28;20184;-69
2023/12/21 15:33:58;;;;;;;50.13;9.17;;;;;;;7.54;100.00;99477.69;5046780;28;20496;-69
2023/12/21 15:36:23;;;;;;;36.40;8.00;;;;;;;7.86;100.00;99527.44;5048742;28;20201;-69
2023/12/21 15:38:48;;;;;;;40.80;8.30;;;;;;;7.64;100.00;99502.09;5047469;28;20183;-69
2023/12/21 15:41:21;;;;;;;40.33;7.43;;;;;;;7.74;100.00;99486.44;5041148;28;20215;-69
2023/12/21 15:43:48;;;;;;;33.10;6.73;;;;;;;7.25;100.00;99384.66;5044304;28;20581;-69
2023/12/21 15:46:16;;;;;;;38.30;8.03;;;;;;;7.39;100.00;99390.75;5041676;28;20556;-69
2023/12/21 15:48:42;;;;;;;41.33;7.93;;;;;;;7.86;100.00;99444.66;5056111;28;20850;-69
2023/12/21 15:51:07;;;;;;;28.80;6.43;;;;;;;7.69;100.00;99398.16;5023800;28;20450;-69
2023/12/21 15:53:33;;;;;;;45.90;7.20;;;;;;;7.68;100.00;99357.31;5049098;28;20561;-69
2023/12/21 15:55:58;;;;;;;36.23;7.20;;;;;;;7.57;100.00;99315.31;5048493;28;20200;-70
2023/12/21 15:58:24;;;;;;;30.33;6.53;;;;;;;7.87;100.00;99368.91;5046039;28;20188;-69
2023/12/21 16:00:50;;;;;;;41.80;7.50;;;;;;;7.81;100.00;99368.94;5050096;28;20176;-69
2023/12/21 16:03:16;;;;;;;54.10;9.77;;;;;;;7.62;100.00;99349.38;5038080;28;20710;-69
2023/12/21 16:05:41;;;;;;;31.77;6.93;;;;;;;7.76;100.00;99398.97;5048656;28;20210;-69
2023/12/21 16:08:08;;;;;;;44.03;8.07;;;;;;;7.50;100.00;99364.44;5046274;28;20812;-69
2023/12/21 16:10:34;;;;;;;48.43;7.30;;;;;;;7.73;100.00;99455.44;5063188;28;20187;-69
2023/12/21 16:13:00;;;;;;;37.10;6.50;;;;;;;7.76;100.00;99467.53;5045349;28;20547;-69
2023/12/21 16:15:25;;;;;;;31.93;7.33;;;;;;;7.71;100.00;99486.84;5041736;28;20438;-69
2023/12/21 16:17:51;;;;;;;46.63;8.20;;;;;;;7.42;100.00;99454.34;5041800;28;20721;-69
2023/12/21 16:20:19;;;;;;;32.30;6.83;;;;;;;7.60;100.00;99500.88;5045344;28;20187;-69
2023/12/21 16:22:45;;;;;;;38.50;9.23;;;;;;;7.47;100.00;99507.09;5042956;28;20207;-69
2023/12/21 16:25:10;;;;;;;39.23;8.73;;;;;;;7.71;100.00;99508.22;5040162;28;20435;-69
2023/12/21 16:27:36;;;;;;;48.40;9.67;;;;;;;7.75;100.00;99492.56;5042320;28;20998;-69
2023/12/21 16:30:01;;;;;;;51.27;8.80;;;;;;;7.09;100.00;99403.81;5050235;28;20274;-69
2023/12/21 16:32:27;;;;;;;39.53;8.80;;;;;;;7.65;100.00;99512.53;5048048;28;20188;-69
2023/12/21 16:34:52;;;;;;;49.87;10.13;;;;;;;7.53;100.00;99510.75;5043837;28;20503;-69
2023/12/21 16:37:17;;;;;;;45.23;8.37;;;;;;;7.41;100.00;99498.06;5043078;28;20195;-69
2023/12/21 16:39:43;;;;;;;52.63;10.77;;;;;;;7.32;100.00;99495.84;5044628;28;20180;-69
2023/12/21 16:42:09;;;;;;;42.17;8.57;;;;;;;7.58;100.00;99534.94;5044620;28;20184;-69
2023/12/21 16:44:34;;;;;;;45.03;8.37;;;;;;;7.50;100.00;99529.88;5049775;28;20224;-69
2023/12/21 16:46:59;;;;;;;42.47;7.80;;;;;;;7.36;100.00;99499.72;5045147;28;20669;-69
2023/12/21 16:49:27;;;;;;;42.60;6.87;;;;;;;7.22;100.00;99459.75;5045243;28;20528;-69
2023/12/21 16:51:52;;;;;;;35.83;7.57;;;;;;;7.44;100.00;99475.50;5041200;28;20187;-69
2023/12/21 16:54:18;;;;;;;34.17;6.30;;;;;;;7.32;100.00;99440.66;5041576;28;20422;-69
2023/12/21 16:56:43;;;;;;;46.13;8.70;;;;;;;7.52;100.00;99466.41;5046946;28;20230;-69
2023/12/21 16:59:09;;;;;;;39.70;7.23;;;;;;;7.42;100.00;99477.53;5048285;28;20927;-69
2023/12/21 17:01:35;;;;;;;37.30;7.43;;;;;;;7.49;100.00;99531.69;5051610;28;20696;-69
2023/12/21 17:04:01;;;;;;;25.10;5.43;;;;;;;7.04;100.00;99512.94;5039026;28;20434;-69
2023/12/21 17:06:27;;;;;;;19.77;4.07;;;;;;;6.93;100.00;99486.91;5047118;28;20206;-69
2023/12/21 17:08:52;;;;;;;21.43;4.60;;;;;;;6.92;100.00;99519.94;5046673;28;20437;-69
2023/12/21 17:11:18;;;;;;;20.40;4.23;;;;;;;6.66;100.00;99456.84;5039581;28;20190;-69
2023/12/21 17:13:43;;;;;;;25.33;6.00;;;;;;;6.92;100.00;99485.28;5045274;28;20184;-69
2023/12/21 17:16:09;;;;;;;37.00;5.50;;;;;;;6.93;100.00;99522.38;5045582;28;20214;-69
2023/12/21 17:18:34;;;;;;;29.37;5.33;;;;;;;6.39;100.00;99389.44;5047374;28;20179;-69
2023/12/21 17:21:00;;;;;;;28.57;5.37;;;;;;;6.76;100.00;99419.91;5047054;28;20554;-69
2023/12/21 17:23:25;;;;;;;30.20;5.23;;;;;;;7.14;100.00;99451.97;5044522;28;21456;-69
2023/12/21 17:25:51;;;;;;;36.00;6.53;;;;;;;7.04;100.00;99429.47;5043145;28;20476;-69
2023/12/21 17:28:17;;;;;;;24.90;5.77;;;;;;;7.21;100.00;99425.31;5046288;28;20196;-69
2023/12/21 17:30:43;;;;;;;30.87;5.63;;;;;;;7.23;100.00;99407.22;5045956;28;20175;-69
2023/12/21 17:33:09;;;;;;;31.00;7.20;;;;;;;7.11;100.00;99393.75;5040604;28;20184;-71
2023/12/21 17:35:35;;;;;;;50.33;6.80;;;;;;;7.16;100.00;99443.78;5042642;28;20418;-69
2023/12/21 17:38:01;;;;;;;27.00;5.03;;;;;;;6.96;100.00;99383.34;5039478;28;20440;-69
2023/12/21 17:40:26;;;;;;;39.10;7.33;;;;;;;6.94;100.00;99363.25;5042776;28;20433;-69
2023/12/21 17:42:53;;;;;;;32.33;7.00;;;;;;;7.23;100.00;99384.06;5041937;28;20267;-69
2023/12/21 17:45:19;;;;;;;36.67;7.10;;;;;;;7.16;100.00;99388.59;5045064;28;20192;-69
2023/12/21 17:47:44;;;;;;;35.03;7.10;;;;;;;7.08;100.00;99436.84;5060265;28;20480;-69
2023/12/21 17:50:10;;;;;;;46.23;9.30;;;;;;;7.07;100.00;99426.41;5034685;28;20537;-69
2023/12/21 17:52:36;;;;;;;31.03;6.70;;;;;;;6.84;100.00;99385.03;5042721;28;20649;-69
2023/12/21 17:55:01;;;;;;;40.00;7.27;;;;;;;7.18;100.00;99445.22;5039557;28;20626;-69
2023/12/21 17:57:27;;;;;;;39.20;9.30;;;;;;;7.17;100.00;99461.41;5047351;28;20246;-69
2023/12/21 17:59:54;;;;;;;35.73;6.30;;;;;;;6.62;100.00;99420.94;5048980;28;20916;-71
2023/12/21 18:02:20;;;;;;;25.07;6.17;;;;;;;7.04;100.00;99451.63;5044408;28;20182;-69
2023/12/21 18:04:50;;;;;;;27.57;5.80;;;;;;;6.93;100.00;99452.25;5044878;28;20705;-69
2023/12/21 18:07:15;;;;;;;38.60;6.27;;;;;;;7.02;100.00;99467.81;5050467;28;20474;-69
2023/12/21 18:09:41;;;;;;;24.73;5.03;;;;;;;7.07;100.00;99437.88;5051439;28;20450;-68
2023/12/21 18:12:07;;;;;;;25.30;6.40;;;;;;;7.02;100.00;99437.66;5043429;28;20218;-68
2023/12/21 18:14:32;;;;;;;32.47;6.33;;;;;;;6.76;100.00;99399.41;5050414;28;20190;-68
2023/12/21 18:16:57;;;;;;;28.03;6.10;;;;;;;6.79;100.00;99396.31;5060524;28;20211;-68
2023/12/21 18:19:23;;;;;;;28.33;6.10;;;;;;;6.76;100.00;99417.25;5042760;28;20190;-68
2023/12/21 18:21:49;;;;;;;33.17;8.23;;;;;;;6.51;100.00;99347.84;5052160;28;20609;-68
2023/12/21 18:24:15;;;;;;;30.27;6.43;;;;;;;7.24;100.00;99443.56;5043689;28;20191;-68
2023/12/21 18:26:41;;;;;;;36.73;7.80;;;;;;;7.18;100.00;99439.06;5044109;28;20588;-68
2023/12/21 18:29:09;;;;;;;39.50;6.90;;;;;;;6.91;100.00;99396.47;5049575;28;20537;-68
2023/12/21 18:31:38;;;;;;;25.70;5.70;;;;;;;7.10;100.00;99453.44;5055318;28;20237;-68
2023/12/21 18:34:07;;;;;;;33.17;7.37;;;;;;;6.83;100.00;99426.06;5046281;28;20439;-68
2023/12/21 18:36:32;;;;;;;40.13;6.87;;;;;;;6.94;100.00;99504.53;5044645;28;20458;-68
2023/12/21 18:38:58;;;;;;;30.23;6.93;;;;;;;6.70;100.00;99530.81;5041501;28;20445;-68
2023/12/21 18:41:23;;;;;;;37.00;7.40;;;;;;;6.55;100.00;99531.00;5044115;28;20271;-68
2023/12/21 18:43:49;;;;;;;38.50;6.43;;;;;;;6.64;100.00;99594.75;5052977;28;20183;-68
2023/12/21 18:46:15;;;;;;;36.57;6.67;;;;;;;6.62;100.00;99610.13;5043380;28;20215;-68
2023/12/21 18:48:41;;;;;;;25.37;4.97;;;;;;;6.05;100.00;99631.69;5047716;28;20435;-68
2023/12/21 18:51:06;;;;;;;19.67;3.10;;;;;;;5.26;100.00;99504.41;5054066;28;21005;-68
2023/12/21 18:53:32;;;;;;;33.23;4.67;;;;;;;5.52;100.00;99572.88;5050085;28;20240;-69
2023/12/21 18:55:58;;;;;;;24.00;5.20;;;;;;;5.77;100.00;99628.25;5046212;28;20214;-69
2023/12/21 18:58:23;;;;;;;21.20;3.97;;;;;;;5.75;100.00;99601.84;5045884;28;20666;-67
2023/12/21 19:00:49;;;;;;;17.43;2.83;;;;;;;5.28;100.00;99536.13;5051798;28;20433;-67
2023/12/21 19:03:14;;;;;;;20.33;3.70;;;;;;;5.99;100.00;99667.09;5053642;28;20571;-71
2023/12/21 19:05:41;;;;;;;14.13;3.10;;;;;;;5.62;100.00;99637.19;5049743;28;20190;-71
2023/12/21 19:08:06;;;;;;;14.40;3.00;;;;;;;5.72;100.00;99599.56;5049864;28;20294;-69
2023/12/21 19:10:32;;;;;;;14.53;2.70;;;;;;;6.05;100.00;99674.28;5050480;28;20907;-69
2023/12/21 19:12:57;;;;;;;20.87;4.43;;;;;;;5.64;100.00;99634.31;5050840;28;20684;-69
2023/12/21 19:15:23;;;;;;;19.00;3.47;;;;;;;6.06;100.00;99697.22;5047635;28;20194;-69
2023/12/21 19:17:48;;;;;;;11.93;2.67;;;;;;;5.18;100.00;99574.53;5043787;28;20249;-69
2023/12/21 19:20:13;;;;;;;13.50;2.30;;;;;;;5.98;100.00;99611.38;5060270;28;20223;-69
2023/12/21 19:22:39;;;;;;;13.17;2.60;;;;;;;5.92;100.00;99583.69;5045534;28;20192;-69
2023/12/21 19:25:05;;;;;;;16.90;2.97;;;;;;;5.99;100.00;99583.75;5048652;28;20187;-69
2023/12/21 19:27:30;;;;;;;21.73;4.00;;;;;;;6.23;100.00;99622.34;5045699;28;20222;-69
2023/12/21 19:29:56;;;;;;;25.40;5.10;;;;;;;6.10;100.00;99594.66;5040073;28;20193;-69
2023/12/21 19:32:21;;;;;;;40.67;6.20;;;;;;;6.01;100.00;99582.53;5051710;28;20199;-69
2023/12/21 19:34:46;;;;;;;24.00;5.97;;;;;;;5.80;100.00;99574.66;5046883;28;20228;-71
2023/12/21 19:37:15;;;;;;;25.17;5.40;;;;;;;6.13;100.00;99704.41;5051398;28;20191;-69
2023/12/21 19:39:41;;;;;;;18.37;3.60;;;;;;;5.13;100.00;99626.63;5050563;28;20179;-69
2023/12/21 19:42:06;;;;;;;18.30;4.57;;;;;;;5.12;100.00;99675.47;5048524;28;20434;-69
2023/12/21 19:44:32;;;;;;;22.80;4.50;;;;;;;5.16;100.00;99722.75;5050502;28;20214;-69
2023/12/21 19:46:57;;;;;;;27.43;4.37;;;;;;;5.39;100.00;99743.00;5053803;28;20199;-68
2023/12/21 19:49:22;;;;;;;25.10;4.47;;;;;;;5.68;100.00;99752.66;5044557;28;20196;-69
2023/12/21 19:51:48;;;;;;;19.33;4.27;;;;;;;5.37;100.00;99660.75;5049217;28;20183;-69
2023/12/21 19:54:13;;;;;;;19.40;3.90;;;;;;;5.63;100.00;99689.38;5042132;28;20180;-69
2023/12/21 19:56:39;;;;;;;19.33;3.00;;;;;;;5.95;100.00;99718.25;5055073;28;20203;-69
2023/12/21 19:59:05;;;;;;;18.40;3.37;;;;;;;6.03;100.00;99716.25;5052291;28;20730;-69
2023/12/21 20:01:33;;;;;;;15.03;3.30;;;;;;;6.00;100.00;99715.84;5054061;28;20657;-69
2023/12/21 20:03:59;;;;;;;18.30;3.80;;;;;;;5.62;100.00;99686.91;5041104;28;20192;-68
2023/12/21 20:06:24;;;;;;;26.57;4.60;;;;;;;5.95;100.00;99727.06;5039631;28;20464;-69
2023/12/21 20:08:50;;;;;;;13.60;2.70;;;;;;;5.60;100.00;99737.63;5052082;28;20188;-69
2023/12/21 20:11:15;;;;;;;17.83;2.90;;;;;;;5.59;100.00;99746.66;5050479;28;20566;-69
2023/12/21 20:13:40;;;;;;;23.33;4.60;;;;;;;5.63;100.00;99750.56;5051114;28;20191;-69
2023/12/21 20:16:08;;;;;;;17.80;4.30;;;;;;;5.64;100.00;99736.25;5046993;28;20210;-69
2023/12/21 20:18:36;;;;;;;25.67;4.70;;;;;;;5.80;100.00;99750.28;5043434;28;20207;-69
2023/12/21 20:21:01;;;;;;;34.20;6.43;;;;;;;5.80;100.00;99744.94;5050341;28;20426;-69
2023/12/21 20:23:27;;;;;;;28.13;4.73;;;;;;;5.71;100.00;99778.03;5044516;28;20433;-68
2023/12/21 20:25:52;;;;;;;25.47;5.07;;;;;;;5.75;100.00;99768.66;5043998;28;20734;-69
2023/12/21 20:28:17;;;;;;;25.70;5.07;;;;;;;5.80;100.00;99798.16;5047718;28;20195;-69
2023/12/21 20:30:44;;;;;;;27.40;5.20;;;;;;;5.74;100.00;99796.28;5053063;28;20641;-69
2023/12/21 20:33:10;;;;;;;19.23;4.20;;;;;;;5.04;100.00;99745.56;5048832;28;20189;-69
2023/12/21 20:35:35;;;;;;;18.67;3.17;;;;;;;5.06;100.00;99804.63;5044916;28;20438;-69
2023/12/21 20:38:01;;;;;;;12.60;2.63;;;;;;;4.95;100.00;99798.00;5040320;28;20194;-69
2023/12/21 20:40:26;;;;;;;13.37;3.23;;;;;;;5.04;100.00;99785.41;5044137;28;20256;-69
2023/12/21 20:42:53;;;;;;;10.17;2.07;;;;;;;4.78;100.00;99745.28;5051374;28;20190;-69
2023/12/21 20:45:18;;;;;;;18.80;2.30;;;;;;;5.28;100.00;99815.31;5047525;28;20230;-69
2023/12/21 20:47:44;;;;;;;9.83;2.50;;;;;;;5.30;100.00;99794.69;5045705;28;20463;-69
2023/12/21 20:50:13;;;;;;;16.90;2.93;;;;;;;5.47;100.00;99813.84;5051799;28;20191;-69
2023/12/21 20:52:38;;;;;;;21.30;4.40;;;;;;;5.48;100.00;99794.22;5049579;28;20435;-69
2023/12/21 20:55:04;;;;;;;20.53;4.20;;;;;;;5.71;100.00;99802.81;5049635;28;20438;-69
2023/12/21 20:57:29;;;;;;;22.50;4.33;;;;;;;5.65;100.00;99775.13;5045463;28;20569;-69
2023/12/21 20:59:55;;;;;;;24.13;5.57;;;;;;;5.66;100.00;99741.38;5047522;28;20900;-69
2023/12/21 21:02:23;;;;;;;13.13;2.97;;;;;;;5.42;100.00;99742.63;5046686;28;20186;-68
2023/12/21 21:04:48;;;;;;;16.80;2.77;;;;;;;5.53;100.00;99768.69;5045556;28;20183;-69
2023/12/21 21:07:14;;;;;;;29.33;3.27;;;;;;;5.33;100.00;99709.22;5048331;28;20477;-69
2023/12/21 21:09:40;;;;;;;21.80;2.87;;;;;;;5.63;100.00;99769.16;5044806;28;20195;-68
2023/12/21 21:12:09;;;;;;;12.93;3.03;;;;;;;5.62;100.00;99754.25;5043564;28;20183;-69
2023/12/21 21:14:35;;;;;;;14.77;2.83;;;;;;;5.68;100.00;99773.13;5040878;28;20193;-69
2023/12/21 21:17:01;;;;;;;20.90;3.30;;;;;;;5.60;100.00;99758.91;5050422;28;20831;-69
2023/12/21 21:19:26;;;;;;;20.70;4.50;;;;;;;5.69;100.00;99758.78;5045511;28;20889;-69
2023/12/21 21:21:51;;;;;;;27.67;5.03;;;;;;;5.75;100.00;99790.75;5048069;28;20183;-69
2023/12/21 21:24:17;;;;;;;21.13;4.40;;;;;;;5.89;100.00;99784.50;5045547;28;20202;-69
2023/12/21 21:26:42;;;;;;;28.73;5.20;;;;;;;5.58;100.00;99738.84;5042718;28;20207;-69
2023/12/21 21:29:08;;;;;;;22.33;4.17;;;;;;;5.27;100.00;99702.00;5044632;28;20191;-69
2023/12/21 21:31:34;;;;;;;17.77;4.47;;;;;;;5.76;100.00;99802.25;5046406;28;20187;-69
2023/12/21 21:34:00;;;;;;;17.57;4.07;;;;;;;5.85;100.00;99822.38;5063870;28;20180;-69
2023/12/21 21:36:25;;;;;;;36.50;6.17;;;;;;;5.27;100.00;99717.97;5048964;28;20461;-69
2023/12/21 21:38:50;;;;;;;17.97;4.67;;;;;;;5.83;100.00;99781.81;5053323;28;20175;-69
2023/12/21 21:41:17;;;;;;;17.37;3.83;;;;;;;5.54;100.00;99738.41;5046483;28;20678;-69
2023/12/21 21:43:43;;;;;;;17.93;3.57;;;;;;;5.83;100.00;99792.47;5049316;28;20187;-69
2023/12/21 21:46:09;;;;;;;19.57;3.70;;;;;;;5.77;100.00;99782.59;5051374;28;20468;-69
2023/12/21 21:48:37;;;;;;;25.67;5.10;;;;;;;5.75;100.00;99760.66;5047159;28;20446;-69
2023/12/21 21:51:04;;;;;;;22.57;4.97;;;;;;;5.41;100.00;99682.47;5053644;28;20187;-69
2023/12/21 21:53:31;;;;;;;23.47;4.87;;;;;;;5.94;100.00;99797.28;5049162;28;20722;-69
2023/12/21 21:55:56;;;;;;;24.53;4.30;;;;;;;6.19;100.00;99775.50;5051221;28;20555;-69
2023/12/21 21:58:21;;;;;;;20.67;3.00;;;;;;;5.86;100.00;99752.16;5050101;28;20442;-69
2023/12/21 22:00:47;;;;;;;15.87;3.30;;;;;;;5.75;100.00;99763.31;5068763;28;20178;-69
2023/12/21 22:03:12;;;;;;;22.60;3.40;;;;;;;5.86;100.00;99784.91;5049556;28;20184;-69
2023/12/21 22:05:38;;;;;;;16.33;4.03;;;;;;;6.06;100.00;99810.88;5041684;28;20183;-69
2023/12/21 22:08:03;;;;;;;19.03;3.87;;;;;;;5.87;100.00;99793.69;5050234;28;22093;-69
2023/12/21 22:10:30;;;;;;;19.47;5.10;;;;;;;5.99;100.00;99837.47;5052871;28;20203;-69
2023/12/21 22:12:55;;;;;;;26.00;5.87;;;;;;;5.75;100.00;99803.25;5045699;28;20437;-69
2023/12/21 22:15:20;;;;;;;28.03;5.63;;;;;;;6.13;100.00;99845.53;5051956;28;20440;-69
2023/12/21 22:17:46;;;;;;;35.03;5.37;;;;;;;6.17;100.00;99852.13;5046372;28;20208;-69
2023/12/21 22:20:11;;;;;;;32.50;6.17;;;;;;;6.00;100.00;99812.47;5048641;28;20202;-69
2023/12/21 22:22:37;;;;;;;21.83;4.67;;;;;;;6.11;100.00;99825.25;5045071;28;20449;-69
2023/12/21 22:25:02;;;;;;;22.33;4.47;;;;;;;6.17;100.00;99804.19;5048510;28;20545;-69
2023/12/21 22:27:28;;;;;;;26.50;5.80;;;;;;;6.13;100.00;99802.94;5050673;28;20220;-69
2023/12/21 22:29:54;;;;;;;21.10;5.10;;;;;;;6.30;100.00;99794.44;5052982;28;20188;-69
2023/12/21 22:32:19;;;;;;;21.70;4.83;;;;;;;6.09;100.00;99779.34;5046928;28;20215;-69
2023/12/21 22:34:46;;;;;;;31.30;6.40;;;;;;;5.51;100.00;99709.53;5043164;28;21522;-69
2023/12/21 22:37:11;;;;;;;35.57;7.43;;;;;;;6.07;100.00;99813.34;5065945;28;20203;-68
2023/12/21 22:39:37;;;;;;;24.10;6.00;;;;;;;6.03;100.00;99805.94;5046578;28;20450;-69
2023/12/21 22:42:03;;;;;;;32.70;4.90;;;;;;;5.82;100.00;99767.69;5048588;28;20657;-69
2023/12/21 22:44:29;;;;;;;29.43;6.63;;;;;;;6.20;100.00;99820.59;5056284;28;20521;-69
2023/12/21 22:46:55;;;;;;;26.90;6.77;;;;;;;5.77;100.00;99724.88;5045721;28;20911;-69
2023/12/21 22:49:21;;;;;;;21.83;4.57;;;;;;;6.29;100.00;99794.63;5049007;28;20565;-69
2023/12/21 22:51:47;;;;;;;24.23;4.93;;;;;;;5.98;100.00;99763.94;5053790;28;20950;-69
2023/12/21 22:54:16;;;;;;;16.93;3.40;;;;;;;5.84;100.00;99773.66;5042380;28;20438;-69
2023/12/21 22:56:42;;;;;;;16.93;2.83;;;;;;;5.92;100.00;99790.47;5049355;28;20898;-69
2023/12/21 22:59:09;;;;;;;13.50;3.20;;;;;;;5.25;100.00;99693.38;5053560;28;20513;-69
2023/12/21 23:01:34;;;;;;;22.97;3.77;;;;;;;5.93;100.00;99782.34;5052336;28;20430;-69
2023/12/21 23:04:00;;;;;;;25.57;4.23;;;;;;;5.63;100.00;99753.22;5053728;28;20432;-69
2023/12/21 23:06:25;;;;;;;24.00;4.43;;;;;;;5.82;100.00;99790.81;5045688;28;20299;-69
2023/12/21 23:08:51;;;;;;;21.00;4.80;;;;;;;5.98;100.00;99803.84;5052300;28;20543;-69
2023/12/21 23:11:16;;;;;;;17.67;3.00;;;;;;;5.93;100.00;99819.59;5048914;28;20183;-69
2023/12/21 23:13:42;;;;;;;20.47;3.63;;;;;;;5.49;100.00;99770.06;5045101;28;20191;-69
2023/12/21 23:16:07;;;;;;;22.37;3.87;;;;;;;5.66;100.00;99784.75;5046915;28;20211;-69
2023/12/21 23:18:33;;;;;;;30.83;6.07;;;;;;;5.87;100.00;99836.28;5050195;28;20198;-69
2023/12/21 23:20:59;;;;;;;28.03;4.73;;;;;;;5.67;100.00;99796.25;5048860;28;20639;-69
2023/12/21 23:23:24;;;;;;;29.33;6.07;;;;;;;5.99;100.00;99831.28;5044901;28;20438;-69
2023/12/21 23:25:50;;;;;;;39.03;6.07;;;;;;;5.98;100.00;99825.16;5063035;28;20207;-69
2023/12/21 23:28:15;;;;;;;40.03;5.80;;;;;;;5.82;100.00;99798.81;5047815;28;20196;-69
2023/12/21 23:30:41;;;;;;;33.67;5.30;;;;;;;5.97;100.00;99799.56;5045786;28;20266;-69
2023/12/21 23:33:08;;;;;;;30.13;5.17;;;;;;;6.19;100.00;99826.09;5047168;28;20183;-69
2023/12/21 23:35:33;;;;;;;20.17;3.70;;;;;;;6.10;100.00;99858.22;5042312;28;20251;-69
2023/12/21 23:37:59;;;;;;;20.90;4.17;;;;;;;5.74;100.00;99852.97;5050748;28;20815;-69
2023/12/21 23:40:25;;;;;;;18.90;3.70;;;;;;;5.55;100.00;99853.59;5045783;28;20183;-69
2023/12/21 23:42:50;;;;;;;21.97;4.03;;;;;;;5.63;100.00;99864.94;5053677;28;20601;-68
2023/12/21 23:45:16;;;;;;;22.17;3.83;;;;;;;5.54;100.00;99846.66;5050249;28;20437;-69
2023/12/21 23:47:41;;;;;;;29.20;4.90;;;;;;;5.32;100.00;99785.50;5064231;28;20302;-69
2023/12/21 23:50:07;;;;;;;17.27;4.00;;;;;;;5.56;100.00;99852.63;5050501;28;20195;-69
2023/12/21 23:52:32;;;;;;;22.30;2.90;;;;;;;4.91;100.00;99754.19;5047090;28;20206;-69
2023/12/21 23:54:58;;;;;;;16.00;3.43;;;;;;;5.30;100.00;99798.16;5042268;28;20744;-69
2023/12/21 23:57:23;;;;;;;17.40;3.47;;;;;;;5.07;100.00;99752.31;5045399;28;20200;-69
2023/12/21 23:59:51;;;;;;;20.83;3.17;;;;;;;5.29;100.00;99772.56;5063529;28;20187;-69
